createdAt,value
2023-04-03T00:00:59.559Z,0.57
2023-04-03T00:01:59.619Z,0.57
2023-04-03T00:02:59.649Z,0.56
2023-04-03T00:03:59.636Z,0.57
2023-04-03T00:04:59.636Z,0.58
2023-04-03T00:05:59.651Z,0.56
2023-04-03T00:06:59.661Z,0.58
2023-04-03T00:07:59.663Z,0.56
2023-04-03T00:08:59.680Z,0.58
2023-04-03T00:09:59.716Z,0.57
2023-04-03T00:10:59.727Z,0.57
2023-04-03T00:11:59.740Z,0.58
2023-04-03T00:12:59.782Z,0.57
2023-04-03T00:13:59.832Z,0.57
2023-04-03T00:14:59.876Z,0.56
2023-04-03T00:15:59.905Z,0.57
2023-04-03T00:17:00.029Z,0.57
2023-04-03T00:18:00.019Z,0.57
2023-04-03T00:19:00.038Z,0.57
2023-04-03T00:20:00.062Z,0.57
2023-04-03T00:21:00.112Z,0.56
2023-04-03T00:22:00.175Z,0.57
2023-04-03T00:23:00.174Z,0.58
2023-04-03T00:24:00.192Z,0.58
2023-04-03T00:25:00.215Z,0.57
2023-04-03T00:26:00.217Z,0.57
2023-04-03T00:27:00.263Z,0.58
2023-04-03T00:28:00.294Z,0.57
2023-04-03T00:29:00.295Z,0.57
2023-04-03T00:30:00.274Z,0.56
2023-04-03T00:31:00.301Z,0.57
2023-04-03T00:32:00.278Z,0.57
2023-04-03T00:33:00.304Z,0.56
2023-04-03T00:34:00.329Z,0.58
2023-04-03T00:35:00.262Z,0.57
2023-04-03T00:36:00.496Z,0.57
2023-04-03T00:37:00.452Z,0.56
2023-04-03T00:38:00.245Z,0.57
2023-04-03T00:39:00.241Z,0.56
2023-04-03T00:40:00.258Z,0.57
2023-04-03T00:41:00.238Z,0.55
2023-04-03T00:42:00.250Z,0.57
2023-04-03T00:43:00.235Z,0.57
2023-04-03T00:44:00.246Z,0.57
2023-04-03T00:45:00.230Z,0.57
2023-04-03T00:46:00.273Z,0.57
2023-04-03T00:47:00.199Z,0.56
2023-04-03T00:48:00.258Z,0.57
2023-04-03T00:49:00.165Z,0.56
2023-04-03T00:50:00.212Z,0.57
2023-04-03T00:51:00.128Z,0.58
2023-04-03T00:52:00.148Z,0.57
2023-04-03T00:53:00.148Z,0.57
2023-04-03T00:54:00.155Z,0.58
2023-04-03T00:55:00.113Z,0.56
2023-04-03T00:56:00.057Z,0.58
2023-04-03T00:57:00.077Z,0.57
2023-04-03T00:58:00.020Z,0.57
2023-04-03T00:59:00.013Z,0.56
2023-04-03T01:00:00.008Z,0.58
2023-04-03T01:01:00.000Z,0.56
2023-04-03T01:02:00.141Z,0.57
2023-04-03T01:03:00.021Z,0.57
2023-04-03T01:04:00.017Z,0.56
2023-04-03T01:04:59.983Z,0.56
2023-04-03T01:05:59.967Z,0.58
2023-04-03T01:06:59.976Z,0.57
2023-04-03T01:07:59.999Z,0.56
2023-04-03T01:09:00.019Z,0.57
2023-04-03T01:10:00.061Z,0.57
2023-04-03T01:11:00.056Z,0.57
2023-04-03T01:12:00.073Z,0.56
2023-04-03T01:13:00.139Z,0.58
2023-04-03T01:14:00.118Z,0.56
2023-04-03T01:15:00.136Z,0.55
2023-04-03T01:16:00.227Z,0.58
2023-04-03T01:17:00.180Z,0.56
2023-04-03T01:18:00.234Z,0.57
2023-04-03T01:19:00.203Z,0.57
2023-04-03T01:20:00.213Z,0.57
2023-04-03T01:21:00.227Z,0.56
2023-04-03T01:22:00.239Z,0.56
2023-04-03T01:23:00.254Z,0.56
2023-04-03T01:24:00.241Z,0.56
2023-04-03T01:25:00.239Z,0.58
2023-04-03T01:26:00.286Z,0.56
2023-04-03T01:27:00.274Z,0.58
2023-04-03T01:28:00.274Z,0.56
2023-04-03T01:29:00.327Z,0.56
2023-04-03T01:30:00.283Z,0.56
2023-04-03T01:31:00.283Z,0.56
2023-04-03T01:32:00.287Z,0.56
2023-04-03T01:33:00.324Z,0.57
2023-04-03T01:34:00.294Z,0.56
2023-04-03T01:35:00.305Z,0.57
2023-04-03T01:36:00.361Z,0.56
2023-04-03T01:37:00.310Z,0.57
2023-04-03T01:38:00.289Z,0.57
2023-04-03T01:39:00.286Z,0.57
2023-04-03T01:40:00.261Z,0.57
2023-04-03T01:41:00.241Z,0.56
2023-04-03T01:42:00.291Z,0.57
2023-04-03T01:43:00.220Z,0.56
2023-04-03T01:44:00.212Z,0.55
2023-04-03T01:45:00.199Z,0.56
2023-04-03T01:46:00.297Z,0.55
2023-04-03T01:47:00.232Z,0.57
2023-04-03T01:48:00.275Z,0.57
2023-04-03T01:49:00.186Z,0.56
2023-04-03T01:50:00.201Z,0.57
2023-04-03T01:51:00.179Z,0.57
2023-04-03T01:52:00.175Z,0.57
2023-04-03T01:53:00.168Z,0.56
2023-04-03T01:54:00.193Z,0.56
2023-04-03T01:55:00.156Z,0.58
2023-04-03T01:56:00.148Z,0.56
2023-04-03T01:57:00.171Z,0.57
2023-04-03T01:58:00.129Z,0.56
2023-04-03T01:59:00.169Z,0.57
2023-04-03T02:00:00.158Z,0.57
2023-04-03T02:01:00.224Z,0.56
2023-04-03T02:02:00.177Z,0.55
2023-04-03T02:03:00.211Z,0.58
2023-04-03T02:04:00.221Z,0.55
2023-04-03T02:05:00.179Z,0.56
2023-04-03T02:06:00.141Z,0.56
2023-04-03T02:07:00.153Z,0.55
2023-04-03T02:08:00.131Z,0.56
2023-04-03T02:09:00.144Z,0.56
2023-04-03T02:10:00.165Z,0.55
2023-04-03T02:11:00.169Z,0.55
2023-04-03T02:12:00.201Z,0.56
2023-04-03T02:13:00.233Z,0.56
2023-04-03T02:14:00.251Z,0.56
2023-04-03T02:15:00.275Z,0.57
2023-04-03T02:16:00.369Z,0.58
2023-04-03T02:17:00.388Z,0.56
2023-04-03T02:18:00.396Z,0.56
2023-04-03T02:19:00.381Z,0.57
2023-04-03T02:20:00.402Z,0.57
2023-04-03T02:21:00.409Z,0.56
2023-04-03T02:22:00.417Z,0.56
2023-04-03T02:23:00.462Z,0.57
2023-04-03T02:24:00.451Z,0.57
2023-04-03T02:25:00.482Z,0.56
2023-04-03T02:26:00.484Z,0.56
2023-04-03T02:27:00.510Z,0.56
2023-04-03T02:28:00.543Z,0.57
2023-04-03T02:29:00.557Z,0.57
2023-04-03T02:30:00.542Z,0.56
2023-04-03T02:31:00.544Z,0.57
2023-04-03T02:32:00.544Z,0.57
2023-04-03T02:33:00.587Z,0.57
2023-04-03T02:34:00.558Z,0.57
2023-04-03T02:35:00.545Z,0.57
2023-04-03T02:36:00.587Z,0.57
2023-04-03T02:37:00.549Z,0.56
2023-04-03T02:38:00.551Z,0.56
2023-04-03T02:39:00.564Z,0.55
2023-04-03T02:40:00.575Z,0.55
2023-04-03T02:41:00.528Z,0.58
2023-04-03T02:42:00.525Z,0.57
2023-04-03T02:43:00.508Z,0.55
2023-04-03T02:44:00.497Z,0.57
2023-04-03T02:45:00.731Z,0.57
2023-04-03T02:46:00.550Z,0.57
2023-04-03T02:47:00.520Z,0.57
2023-04-03T02:48:00.543Z,0.57
2023-04-03T02:49:00.510Z,0.57
2023-04-03T02:50:00.501Z,0.56
2023-04-03T02:51:00.487Z,0.56
2023-04-03T02:52:00.487Z,0.56
2023-04-03T02:53:00.463Z,0.57
2023-04-03T02:54:00.469Z,0.56
2023-04-03T02:55:00.457Z,0.56
2023-04-03T02:56:00.451Z,0.58
2023-04-03T02:57:00.483Z,0.57
2023-04-03T02:58:00.441Z,0.55
2023-04-03T02:59:00.445Z,0.56
2023-04-03T03:00:00.456Z,0.56
2023-04-03T03:01:00.420Z,0.56
2023-04-03T03:02:00.455Z,0.57
2023-04-03T03:03:00.421Z,0.55
2023-04-03T03:04:00.397Z,0.56
2023-04-03T03:05:00.471Z,0.57
2023-04-03T03:06:00.376Z,0.55
2023-04-03T03:07:00.380Z,0.57
2023-04-03T03:08:00.365Z,0.56
2023-04-03T03:09:00.366Z,0.56
2023-04-03T03:10:00.377Z,0.56
2023-04-03T03:11:00.372Z,0.56
2023-04-03T03:12:00.349Z,0.56
2023-04-03T03:13:00.347Z,0.57
2023-04-03T03:14:00.339Z,0.56
2023-04-03T03:15:00.346Z,0.57
2023-04-03T03:16:00.400Z,0.56
2023-04-03T03:17:00.334Z,0.56
2023-04-03T03:18:00.357Z,0.55
2023-04-03T03:19:00.331Z,0.56
2023-04-03T03:20:00.351Z,0.56
2023-04-03T03:21:00.326Z,0.56
2023-04-03T03:22:00.312Z,0.56
2023-04-03T03:23:00.318Z,0.57
2023-04-03T03:24:00.329Z,0.56
2023-04-03T03:25:00.323Z,0.57
2023-04-03T03:26:00.307Z,0.56
2023-04-03T03:27:00.316Z,0.56
2023-04-03T03:28:00.339Z,0.57
2023-04-03T03:29:00.316Z,0.56
2023-04-03T03:30:00.345Z,0.58
2023-04-03T03:31:00.308Z,0.56
2023-04-03T03:32:00.321Z,0.57
2023-04-03T03:33:00.390Z,0.56
2023-04-03T03:34:00.324Z,0.57
2023-04-03T03:35:00.334Z,0.55
2023-04-03T03:36:00.394Z,0.56
2023-04-03T03:37:00.375Z,0.57
2023-04-03T03:38:00.380Z,0.56
2023-04-03T03:39:00.368Z,0.56
2023-04-03T03:40:00.354Z,0.56
2023-04-03T03:41:00.342Z,0.56
2023-04-03T03:42:00.330Z,0.55
2023-04-03T03:43:00.316Z,0.56
2023-04-03T03:44:00.310Z,0.56
2023-04-03T03:45:00.308Z,0.55
2023-04-03T03:46:00.304Z,0.55
2023-04-03T03:47:00.346Z,0.55
2023-04-03T03:48:00.402Z,0.56
2023-04-03T03:49:00.290Z,0.57
2023-04-03T03:50:00.286Z,0.56
2023-04-03T03:51:00.274Z,0.57
2023-04-03T03:52:00.336Z,0.56
2023-04-03T03:53:00.264Z,0.56
2023-04-03T03:54:00.258Z,0.57
2023-04-03T03:55:00.245Z,0.57
2023-04-03T03:56:00.237Z,0.55
2023-04-03T03:57:00.244Z,0.56
2023-04-03T03:58:00.217Z,0.56
2023-04-03T03:59:00.207Z,0.56
2023-04-03T04:00:00.198Z,0.56
2023-04-03T04:01:00.192Z,0.55
2023-04-03T04:02:00.245Z,0.55
2023-04-03T04:03:00.253Z,0.55
2023-04-03T04:04:00.264Z,0.56
2023-04-03T04:05:00.242Z,0.55
2023-04-03T04:06:00.136Z,0.55
2023-04-03T04:07:00.117Z,0.55
2023-04-03T04:08:00.133Z,0.55
2023-04-03T04:09:00.123Z,0.55
2023-04-03T04:10:00.159Z,0.55
2023-04-03T04:11:00.119Z,0.56
2023-04-03T04:12:00.130Z,0.57
2023-04-03T04:13:00.064Z,0.56
2023-04-03T04:14:00.088Z,0.58
2023-04-03T04:15:00.048Z,0.57
2023-04-03T04:16:00.060Z,0.56
2023-04-03T04:17:00.087Z,0.56
2023-04-03T04:18:00.120Z,0.56
2023-04-03T04:19:00.042Z,0.56
2023-04-03T04:20:00.094Z,0.56
2023-04-03T04:21:00.066Z,0.56
2023-04-03T04:22:00.069Z,0.57
2023-04-03T04:23:00.056Z,0.55
2023-04-03T04:24:00.053Z,0.55
2023-04-03T04:25:00.026Z,0.56
2023-04-03T04:26:00.037Z,0.56
2023-04-03T04:27:00.021Z,0.56
2023-04-03T04:28:00.032Z,0.55
2023-04-03T04:29:00.009Z,0.56
2023-04-03T04:29:59.995Z,0.56
2023-04-03T04:31:00.041Z,0.56
2023-04-03T04:31:59.985Z,0.56
2023-04-03T04:33:00.023Z,0.56
2023-04-03T04:33:59.973Z,0.56
2023-04-03T04:35:00.020Z,0.57
2023-04-03T04:35:59.992Z,0.56
2023-04-03T04:37:00.049Z,0.56
2023-04-03T04:37:59.949Z,0.54
2023-04-03T04:38:59.942Z,0.56
2023-04-03T04:39:59.934Z,0.55
2023-04-03T04:40:59.933Z,0.56
2023-04-03T04:41:59.930Z,0.55
2023-04-03T04:42:59.926Z,0.56
2023-04-03T04:43:59.918Z,0.55
2023-04-03T04:44:59.920Z,0.57
2023-04-03T04:45:59.916Z,0.55
2023-04-03T04:46:59.911Z,0.56
2023-04-03T04:47:59.964Z,0.56
2023-04-03T04:48:59.910Z,0.56
2023-04-03T04:49:59.896Z,0.56
2023-04-03T04:50:59.888Z,0.56
2023-04-03T04:51:59.878Z,0.56
2023-04-03T04:52:59.890Z,0.56
2023-04-03T04:53:59.894Z,0.56
2023-04-03T04:54:59.894Z,0.54
2023-04-03T04:55:59.880Z,0.56
2023-04-03T04:56:59.888Z,0.55
2023-04-03T04:57:59.856Z,0.55
2023-04-03T04:58:59.854Z,0.53
2023-04-03T04:59:59.860Z,0.57
2023-04-03T05:00:59.847Z,0.56
2023-04-03T05:01:59.901Z,0.55
2023-04-03T05:02:59.844Z,0.54
2023-04-03T05:03:59.821Z,0.56
2023-04-03T05:04:59.878Z,0.55
2023-04-03T05:05:59.800Z,0.55
2023-04-03T05:06:59.796Z,0.55
2023-04-03T05:07:59.787Z,0.56
2023-04-03T05:08:59.777Z,0.55
2023-04-03T05:09:59.770Z,0.56
2023-04-03T05:10:59.779Z,0.56
2023-04-03T05:11:59.760Z,0.56
2023-04-03T05:12:59.750Z,0.54
2023-04-03T05:13:59.738Z,0.54
2023-04-03T05:14:59.727Z,0.56
2023-04-03T05:15:59.751Z,0.55
2023-04-03T05:16:59.702Z,0.54
2023-04-03T05:17:59.730Z,0.56
2023-04-03T05:18:59.711Z,0.54
2023-04-03T05:19:59.684Z,0.55
2023-04-03T05:20:59.688Z,0.56
2023-04-03T05:21:59.689Z,0.56
2023-04-03T05:22:59.678Z,0.54
2023-04-03T05:23:59.673Z,0.54
2023-04-03T05:24:59.657Z,0.55
2023-04-03T05:25:59.658Z,0.54
2023-04-03T05:26:59.651Z,0.54
2023-04-03T05:27:59.657Z,0.54
2023-04-03T05:28:59.640Z,0.55
2023-04-03T05:29:59.628Z,0.55
2023-04-03T05:30:59.622Z,0.55
2023-04-03T05:31:59.736Z,0.55
2023-04-03T05:32:59.702Z,0.55
2023-04-03T05:33:59.605Z,0.54
2023-04-03T05:35:01.279Z,0.55
2023-04-03T05:35:59.653Z,0.54
2023-04-03T05:36:59.593Z,0.55
2023-04-03T05:37:59.578Z,0.55
2023-04-03T05:38:59.570Z,0.54
2023-04-03T05:39:59.568Z,0.54
2023-04-03T05:40:59.563Z,0.54
2023-04-03T05:41:59.557Z,0.52
2023-04-03T05:42:59.553Z,0.54
2023-04-03T05:43:59.552Z,0.55
2023-04-03T05:44:59.562Z,0.54
2023-04-03T05:45:59.602Z,0.54
2023-04-03T05:46:59.578Z,0.54
2023-04-03T05:47:59.670Z,0.55
2023-04-03T05:48:59.588Z,0.53
2023-04-03T05:49:59.588Z,0.54
2023-04-03T05:50:59.596Z,0.55
2023-04-03T05:51:59.593Z,0.54
2023-04-03T05:52:59.594Z,0.54
2023-04-03T05:53:59.583Z,0.54
2023-04-03T05:54:59.574Z,0.55
2023-04-03T05:55:59.565Z,0.54
2023-04-03T05:56:59.607Z,0.54
2023-04-03T05:57:59.552Z,0.54
2023-04-03T05:58:59.550Z,0.54
2023-04-03T05:59:59.538Z,0.54
2023-04-03T06:00:59.538Z,0.53
2023-04-03T06:01:59.534Z,0.53
2023-04-03T06:02:59.610Z,0.54
2023-04-03T06:03:59.880Z,0.53
2023-04-03T06:04:59.563Z,0.53
2023-04-03T06:05:59.539Z,0.53
2023-04-03T06:06:59.533Z,0.53
2023-04-03T06:07:59.535Z,0.53
2023-04-03T06:08:59.521Z,0.54
2023-04-03T06:09:59.527Z,0.52
2023-04-03T06:10:59.536Z,0.53
2023-04-03T06:11:59.540Z,0.53
2023-04-03T06:12:59.508Z,0.52
2023-04-03T06:13:59.501Z,0.53
2023-04-03T06:14:59.503Z,0.53
2023-04-03T06:15:59.500Z,0.53
2023-04-03T06:16:59.522Z,0.52
2023-04-03T06:17:59.554Z,0.53
2023-04-03T06:18:59.487Z,0.53
2023-04-03T06:19:59.483Z,0.53
2023-04-03T06:20:59.478Z,0.52
2023-04-03T06:21:59.479Z,0.53
2023-04-03T06:22:59.505Z,0.53
2023-04-03T06:23:59.617Z,0.52
2023-04-03T06:24:59.477Z,0.53
2023-04-03T06:25:59.472Z,0.51
2023-04-03T06:26:59.466Z,0.53
2023-04-03T06:27:59.469Z,0.52
2023-04-03T06:28:59.458Z,0.53
2023-04-03T06:29:59.449Z,0.53
2023-04-03T06:31:00.469Z,0.53
2023-04-03T06:31:59.412Z,0.53
2023-04-03T06:32:59.434Z,0.53
2023-04-03T06:33:59.359Z,0.52
2023-04-03T06:34:59.350Z,0.52
2023-04-03T06:35:59.358Z,0.52
2023-04-03T06:36:59.323Z,0.52
2023-04-03T06:37:59.327Z,0.53
2023-04-03T06:38:59.306Z,0.52
2023-04-03T06:39:59.304Z,0.51
2023-04-03T06:40:59.317Z,0.50
2023-04-03T06:41:59.278Z,0.51
2023-04-03T06:42:59.280Z,0.52
2023-04-03T06:43:59.258Z,0.52
2023-04-03T06:44:59.252Z,0.52
2023-04-03T06:45:59.261Z,0.52
2023-04-03T06:46:59.209Z,0.52
2023-04-03T06:47:59.325Z,0.51
2023-04-03T06:48:59.192Z,0.52
2023-04-03T06:49:59.177Z,0.52
2023-04-03T06:50:59.170Z,0.51
2023-04-03T06:52:00.884Z,0.52
2023-04-03T06:52:59.152Z,0.52
2023-04-03T06:53:59.121Z,0.52
2023-04-03T06:54:59.101Z,0.52
2023-04-03T06:55:59.085Z,0.52
2023-04-03T06:56:59.090Z,0.52
2023-04-03T06:57:59.055Z,0.52
2023-04-03T06:58:59.040Z,0.52
2023-04-03T06:59:59.052Z,0.51
2023-04-03T07:00:59.048Z,0.51
2023-04-03T07:01:59.027Z,0.51
2023-04-03T07:02:58.985Z,0.52
2023-04-03T07:03:59.119Z,0.51
2023-04-03T07:04:58.981Z,0.52
2023-04-03T07:05:58.942Z,0.51
2023-04-03T07:06:58.938Z,0.52
2023-04-03T07:07:58.919Z,0.52
2023-04-03T07:08:58.916Z,0.52
2023-04-03T07:09:58.908Z,0.52
2023-04-03T07:10:58.891Z,0.51
2023-04-03T07:11:58.885Z,0.52
2023-04-03T07:12:58.875Z,0.50
2023-04-03T07:13:58.875Z,0.52
2023-04-03T07:14:58.859Z,0.52
2023-04-03T07:15:58.879Z,0.51
2023-04-03T07:16:58.849Z,0.50
2023-04-03T07:17:59.039Z,0.52
2023-04-03T07:18:58.867Z,0.52
2023-04-03T07:19:58.853Z,0.51
2023-04-03T07:20:58.836Z,0.51
2023-04-03T07:21:58.837Z,0.52
2023-04-03T07:22:58.834Z,0.51
2023-04-03T07:23:58.838Z,0.51
2023-04-03T07:24:58.815Z,0.51
2023-04-03T07:25:58.803Z,0.52
2023-04-03T07:26:58.791Z,0.52
2023-04-03T07:27:58.789Z,0.52
2023-04-03T07:28:58.772Z,0.52
2023-04-03T07:29:58.749Z,0.51
2023-04-03T07:30:58.753Z,0.51
2023-04-03T07:31:58.779Z,0.52
2023-04-03T07:32:58.740Z,0.52
2023-04-03T07:33:58.709Z,0.52
2023-04-03T07:34:58.695Z,0.50
2023-04-03T07:35:58.749Z,0.51
2023-04-03T07:36:58.664Z,0.51
2023-04-03T07:37:58.653Z,0.51
2023-04-03T07:38:58.638Z,0.51
2023-04-03T07:39:58.632Z,0.52
2023-04-03T07:40:58.622Z,0.52
2023-04-03T07:41:58.621Z,0.52
2023-04-03T07:42:58.619Z,0.52
2023-04-03T07:43:58.605Z,0.52
2023-04-03T07:44:58.595Z,0.53
2023-04-03T07:45:58.621Z,0.53
2023-04-03T07:46:58.571Z,0.53
2023-04-03T07:47:58.567Z,0.52
2023-04-03T07:48:58.692Z,0.52
2023-04-03T07:49:58.513Z,0.51
2023-04-03T07:50:58.497Z,0.53
2023-04-03T07:51:58.486Z,0.53
2023-04-03T07:52:58.473Z,0.53
2023-04-03T07:53:58.451Z,0.51
2023-04-03T07:54:58.436Z,0.52
2023-04-03T07:55:58.413Z,0.52
2023-04-03T07:56:58.427Z,0.52
2023-04-03T07:57:58.369Z,0.52
2023-04-03T07:58:58.360Z,0.52
2023-04-03T07:59:58.326Z,0.51
2023-04-03T08:00:58.317Z,0.51
2023-04-03T08:01:58.299Z,0.52
2023-04-03T08:02:58.398Z,0.51
2023-04-03T08:03:58.403Z,0.51
2023-04-03T08:04:58.428Z,0.51
2023-04-03T08:05:58.246Z,0.52
2023-04-03T08:06:58.223Z,0.52
2023-04-03T08:07:58.209Z,0.52
2023-04-03T08:08:58.208Z,0.51
2023-04-03T08:09:58.198Z,0.52
2023-04-03T08:10:58.170Z,0.51
2023-04-03T08:11:58.153Z,0.51
2023-04-03T08:12:58.139Z,0.51
2023-04-03T08:13:58.128Z,0.52
2023-04-03T08:14:58.119Z,0.51
2023-04-03T08:15:58.093Z,0.52
2023-04-03T08:16:58.122Z,0.51
2023-04-03T08:17:58.103Z,0.51
2023-04-03T08:18:58.049Z,0.50
2023-04-03T08:19:58.028Z,0.50
2023-04-03T08:20:57.996Z,0.50
2023-04-03T08:21:57.979Z,0.50
2023-04-03T08:22:57.965Z,0.52
2023-04-03T08:23:57.952Z,0.51
2023-04-03T08:24:59.285Z,0.51
2023-04-03T08:25:57.916Z,0.53
2023-04-03T08:26:57.899Z,0.52
2023-04-03T08:27:57.895Z,0.52
2023-04-03T08:28:57.865Z,0.52
2023-04-03T08:29:57.981Z,0.52
2023-04-03T08:30:57.873Z,0.53
2023-04-03T08:31:57.827Z,0.51
2023-04-03T08:32:57.862Z,0.52
2023-04-03T08:33:57.792Z,0.53
2023-04-03T08:34:57.791Z,0.51
2023-04-03T08:35:57.810Z,0.52
2023-04-03T08:36:57.728Z,0.53
2023-04-03T08:37:57.762Z,0.52
2023-04-03T08:38:57.688Z,0.51
2023-04-03T08:39:57.683Z,0.52
2023-04-03T08:40:57.635Z,0.52
2023-04-03T08:41:57.683Z,0.52
2023-04-03T08:42:57.721Z,0.51
2023-04-03T08:43:57.760Z,0.52
2023-04-03T08:44:57.797Z,0.52
2023-04-03T08:45:57.869Z,0.51
2023-04-03T08:46:57.929Z,0.52
2023-04-03T08:47:57.936Z,0.51
2023-04-03T08:48:57.980Z,0.51
2023-04-03T08:49:58.033Z,0.51
2023-04-03T08:50:58.090Z,0.51
2023-04-03T08:51:58.126Z,0.50
2023-04-03T08:52:58.196Z,0.52
2023-04-03T08:53:58.244Z,0.51
2023-04-03T08:54:58.297Z,0.51
2023-04-03T08:55:58.412Z,0.50
2023-04-03T08:56:58.406Z,0.51
2023-04-03T08:57:58.413Z,0.51
2023-04-03T08:58:58.462Z,0.52
2023-04-03T08:59:58.502Z,0.50
2023-04-03T09:00:58.545Z,0.51
2023-04-03T09:01:58.626Z,0.51
2023-04-03T09:02:58.687Z,0.52
2023-04-03T09:03:58.747Z,0.51
2023-04-03T09:04:58.689Z,0.51
2023-04-03T09:05:58.735Z,0.52
2023-04-03T09:06:58.769Z,0.50
2023-04-03T09:07:58.802Z,0.51
2023-04-03T09:08:58.824Z,0.51
2023-04-03T09:09:58.850Z,0.51
2023-04-03T09:10:58.901Z,0.50
2023-04-03T09:11:59.012Z,0.52
2023-04-03T09:12:58.963Z,0.51
2023-04-03T09:13:58.994Z,0.52
2023-04-03T09:14:59.025Z,0.52
2023-04-03T09:15:59.072Z,0.51
2023-04-03T09:16:59.075Z,0.51
2023-04-03T09:17:59.155Z,0.51
2023-04-03T09:18:59.163Z,0.51
2023-04-03T09:19:59.158Z,0.52
2023-04-03T09:20:59.181Z,0.52
2023-04-03T09:21:59.207Z,0.51
2023-04-03T09:22:59.232Z,0.51
2023-04-03T09:23:59.269Z,0.51
2023-04-03T09:24:59.378Z,0.51
2023-04-03T09:25:59.310Z,0.51
2023-04-03T09:26:59.391Z,0.52
2023-04-03T09:27:59.458Z,0.52
2023-04-03T09:28:59.412Z,0.52
2023-04-03T09:29:59.449Z,0.53
2023-04-03T09:30:59.456Z,0.52
2023-04-03T09:31:59.489Z,0.52
2023-04-03T09:32:59.571Z,0.52
2023-04-03T09:33:59.568Z,0.53
2023-04-03T09:35:01.730Z,0.53
2023-04-03T09:35:59.578Z,0.53
2023-04-03T09:36:59.522Z,0.53
2023-04-03T09:37:59.488Z,0.53
2023-04-03T09:38:59.457Z,0.52
2023-04-03T09:39:59.424Z,0.52
2023-04-03T09:40:59.394Z,0.53
2023-04-03T09:41:59.372Z,0.53
2023-04-03T09:43:01.600Z,0.53
2023-04-03T09:43:59.533Z,0.53
2023-04-03T09:44:59.477Z,0.53
2023-04-03T09:45:59.492Z,0.52
2023-04-03T09:46:59.542Z,0.51
2023-04-03T09:47:59.616Z,0.51
2023-04-03T09:49:08.250Z,0.51
2023-04-03T09:50:00.566Z,0.51
2023-04-03T09:50:59.538Z,0.51
2023-04-03T09:51:59.498Z,0.51
2023-04-03T09:52:59.476Z,0.52
2023-04-03T09:53:59.454Z,0.51
2023-04-03T09:54:59.433Z,0.50
2023-04-03T09:55:59.418Z,0.52
2023-04-03T09:56:59.401Z,0.51
2023-04-03T09:57:59.363Z,0.51
2023-04-03T09:58:59.352Z,0.52
2023-04-03T09:59:59.412Z,0.51
2023-04-03T10:00:59.335Z,0.51
2023-04-03T10:01:59.309Z,0.51
2023-04-03T10:02:59.382Z,0.52
2023-04-03T10:03:59.370Z,0.51
2023-04-03T10:06:00.355Z,0.51
2023-04-03T10:06:59.330Z,0.51
2023-04-03T10:08:03.811Z,0.51
2023-04-03T10:08:59.290Z,0.51
2023-04-03T10:09:59.270Z,0.52
2023-04-03T10:10:59.251Z,0.52
2023-04-03T10:11:59.226Z,0.51
2023-04-03T10:12:59.202Z,0.52
2023-04-03T10:13:59.177Z,0.51
2023-04-03T10:14:59.142Z,0.53
2023-04-03T10:15:59.213Z,0.51
2023-04-03T10:16:59.126Z,0.51
2023-04-03T10:17:59.135Z,0.51
2023-04-03T10:18:59.033Z,0.51
2023-04-03T10:19:59.008Z,0.52
2023-04-03T10:20:58.981Z,0.52
2023-04-03T10:21:58.948Z,0.51
2023-04-03T10:22:58.953Z,0.51
2023-04-03T10:23:58.963Z,0.51
2023-04-03T10:24:58.975Z,0.52
2023-04-03T10:25:59.004Z,0.50
2023-04-03T10:26:59.025Z,0.50
2023-04-03T10:27:59.038Z,0.52
2023-04-03T10:28:59.058Z,0.52
2023-04-03T10:29:59.068Z,0.51
2023-04-03T10:30:59.120Z,0.51
2023-04-03T10:31:59.186Z,0.51
2023-04-03T10:32:59.155Z,0.51
2023-04-03T10:33:59.121Z,0.51
2023-04-03T10:35:05.040Z,0.51
2023-04-03T10:36:00.165Z,0.51
2023-04-03T10:36:59.085Z,0.51
2023-04-03T10:37:59.085Z,0.51
2023-04-03T10:38:59.048Z,0.51
2023-04-03T10:39:59.020Z,0.50
2023-04-03T10:40:58.979Z,0.52
2023-04-03T10:42:15.299Z,0.53
2023-04-03T10:42:59.931Z,0.53
2023-04-03T10:43:58.905Z,0.53
2023-04-03T10:44:58.884Z,0.52
2023-04-03T10:45:58.875Z,0.52
2023-04-03T10:46:58.847Z,0.51
2023-04-03T10:47:58.927Z,0.53
2023-04-03T10:48:58.807Z,0.51
2023-04-03T10:50:00.027Z,0.51
2023-04-03T10:50:58.754Z,0.51
2023-04-03T10:51:58.736Z,0.51
2023-04-03T10:52:58.714Z,0.50
2023-04-03T10:53:58.707Z,0.51
2023-04-03T10:54:58.667Z,0.52
2023-04-03T10:55:58.669Z,0.52
2023-04-03T10:57:10.791Z,0.51
2023-04-03T10:57:59.641Z,0.51
2023-04-03T10:58:58.584Z,0.51
2023-04-03T10:59:58.563Z,0.52
2023-04-03T11:00:58.528Z,0.52
2023-04-03T11:01:58.560Z,0.52
2023-04-03T11:02:58.546Z,0.52
2023-04-03T11:03:58.652Z,0.52
2023-04-03T11:04:58.430Z,0.51
2023-04-03T11:05:58.412Z,0.50
2023-04-03T11:06:58.388Z,0.51
2023-04-03T11:07:58.392Z,0.50
2023-04-03T11:08:58.372Z,0.52
2023-04-03T11:09:58.335Z,0.51
2023-04-03T11:10:58.318Z,0.51
2023-04-03T11:11:58.297Z,0.51
2023-04-03T11:12:58.275Z,0.51
2023-04-03T11:13:58.257Z,0.51
2023-04-03T11:14:58.241Z,0.52
2023-04-03T11:15:58.292Z,0.52
2023-04-03T11:16:58.331Z,0.52
2023-04-03T11:17:58.275Z,0.51
2023-04-03T11:18:58.232Z,0.51
2023-04-03T11:19:58.346Z,0.52
2023-04-03T11:20:58.262Z,0.52
2023-04-03T11:21:58.262Z,0.52
2023-04-03T11:22:58.286Z,0.53
2023-04-03T11:23:58.295Z,0.51
2023-04-03T11:24:58.302Z,0.52
2023-04-03T11:25:58.325Z,0.53
2023-04-03T11:26:58.328Z,0.52
2023-04-03T11:27:58.347Z,0.52
2023-04-03T11:28:58.348Z,0.52
2023-04-03T11:29:58.351Z,0.51
2023-04-03T11:30:59.359Z,0.53
2023-04-03T11:31:58.405Z,0.52
2023-04-03T11:32:58.461Z,0.52
2023-04-03T11:33:58.416Z,0.52
2023-04-03T11:34:58.430Z,0.52
2023-04-03T11:35:58.560Z,0.52
2023-04-03T11:36:58.486Z,0.51
2023-04-03T11:37:58.484Z,0.51
2023-04-03T11:38:58.492Z,0.53
2023-04-03T11:39:58.509Z,0.52
2023-04-03T11:40:58.521Z,0.54
2023-04-03T11:42:10.615Z,0.51
2023-04-03T11:42:59.506Z,0.52
2023-04-03T11:43:58.486Z,0.52
2023-04-03T11:44:58.465Z,0.52
2023-04-03T11:45:58.454Z,0.51
2023-04-03T11:46:58.628Z,0.53
2023-04-03T11:47:58.675Z,0.53
2023-04-03T11:48:58.421Z,0.52
2023-04-03T11:49:58.389Z,0.53
2023-04-03T11:50:58.371Z,0.53
2023-04-03T11:51:58.436Z,0.52
2023-04-03T11:52:58.330Z,0.52
2023-04-03T11:53:58.312Z,0.52
2023-04-03T11:54:58.288Z,0.53
2023-04-03T11:55:58.269Z,0.53
2023-04-03T11:56:58.266Z,0.52
2023-04-03T11:57:58.220Z,0.52
2023-04-03T11:58:58.190Z,0.53
2023-04-03T11:59:58.179Z,0.54
2023-04-03T12:00:58.201Z,0.52
2023-04-03T12:01:58.228Z,0.53
2023-04-03T12:02:58.357Z,0.53
2023-04-03T12:03:58.411Z,0.53
2023-04-03T12:04:58.248Z,0.53
2023-04-03T12:05:58.259Z,0.53
2023-04-03T12:06:58.280Z,0.54
2023-04-03T12:07:58.398Z,0.53
2023-04-03T12:08:58.313Z,0.53
2023-04-03T12:09:58.333Z,0.53
2023-04-03T12:10:58.344Z,0.53
2023-04-03T12:11:58.358Z,0.54
2023-04-03T12:12:58.376Z,0.52
2023-04-03T12:13:58.403Z,0.54
2023-04-03T12:14:58.412Z,0.53
2023-04-03T12:15:58.431Z,0.53
2023-04-03T12:16:58.509Z,0.53
2023-04-03T12:17:58.477Z,0.51
2023-04-03T12:18:58.481Z,0.53
2023-04-03T12:19:58.501Z,0.53
2023-04-03T12:20:58.527Z,0.52
2023-04-03T12:21:58.546Z,0.53
2023-04-03T12:22:58.553Z,0.53
2023-04-03T12:23:58.656Z,0.53
2023-04-03T12:24:58.584Z,0.53
2023-04-03T12:25:58.608Z,0.53
2023-04-03T12:26:58.627Z,0.53
2023-04-03T12:27:58.640Z,0.54
2023-04-03T12:28:58.672Z,0.53
2023-04-03T12:29:58.671Z,0.52
2023-04-03T12:30:58.753Z,0.52
2023-04-03T12:31:58.704Z,0.53
2023-04-03T12:33:09.658Z,0.53
2023-04-03T12:33:59.701Z,0.53
2023-04-03T12:34:58.685Z,0.53
2023-04-03T12:36:00.583Z,0.53
2023-04-03T12:36:58.642Z,0.53
2023-04-03T12:37:59.139Z,0.53
2023-04-03T12:38:58.597Z,0.53
2023-04-03T12:39:58.663Z,0.53
2023-04-03T12:40:58.555Z,0.54
2023-04-03T12:41:58.525Z,0.53
2023-04-03T12:42:58.496Z,0.53
2023-04-03T12:43:58.470Z,0.53
2023-04-03T12:44:58.447Z,0.53
2023-04-03T12:45:58.536Z,0.52
2023-04-03T12:46:58.420Z,0.52
2023-04-03T12:47:58.393Z,0.52
2023-04-03T12:48:58.330Z,0.53
2023-04-03T12:49:58.317Z,0.53
2023-04-03T12:50:58.307Z,0.53
2023-04-03T12:51:58.279Z,0.53
2023-04-03T12:52:58.284Z,0.54
2023-04-03T12:53:58.232Z,0.53
2023-04-03T12:54:58.201Z,0.53
2023-04-03T12:55:58.281Z,0.52
2023-04-03T12:56:58.171Z,0.52
2023-04-03T12:57:58.131Z,0.53
2023-04-03T12:58:58.105Z,0.51
2023-04-03T12:59:58.086Z,0.52
2023-04-03T13:00:58.072Z,0.52
2023-04-03T13:01:58.109Z,0.52
2023-04-03T13:02:58.081Z,0.52
2023-04-03T13:03:58.200Z,0.52
2023-04-03T13:04:57.969Z,0.52
2023-04-03T13:05:57.951Z,0.52
2023-04-03T13:06:57.923Z,0.52
2023-04-03T13:07:57.900Z,0.52
2023-04-03T13:08:57.877Z,0.51
2023-04-03T13:09:57.870Z,0.52
2023-04-03T13:10:57.827Z,0.51
2023-04-03T13:11:57.885Z,0.51
2023-04-03T13:12:57.779Z,0.51
2023-04-03T13:13:57.762Z,0.52
2023-04-03T13:14:57.759Z,0.52
2023-04-03T13:15:57.793Z,0.50
2023-04-03T13:16:57.687Z,0.51
2023-04-03T13:17:57.674Z,0.51
2023-04-03T13:18:57.626Z,0.51
2023-04-03T13:19:57.620Z,0.51